Port Aransas, TX (78373)

7:58 AM CDT on August 27, 2014 (GMT -0500)
AB5KT - Island RV Resort | Change Station
CLOSE
Current Station
Personal Weather Station
Location: Port Aransas, TX
Elevation: 10 ft
Nearby Weather Stations

Elev 10 ft 27.83 °N, 97.07 °W | Updated 8 seconds ago

Clear
Clear
86.4 °F
Feels Like 103 °F
N
7.6
Wind Variable Wind from North
Gusts 9.8 mph

Today
High -- | Low -- °F
--% Chance of Precip.
Yesterday
High -- | Low -- °F
Precip. -- in
7:04 AM 7:54 PM
Waxing Crescent, 3% visible
Pressure 29.93 in
Visibility 10.0 miles
Clouds Clear
Heat Index 103 °F
Dew Point 81 °F
Humidity 83%
Rainfall 0.00 in
Snow Depth Not available.
UV 0 out of 12
Pollen 7.00 out of 12
Ozone Good
Flu Activity Not available.
METAR KRAS 271235Z AUTO 02008KT 10SM CLR 27/25 A2993 RMK AO2 T02700245

More Conditions Fewer Conditions

Pressure 29.93 in
Visibility 10.0 miles
Clouds Clear
Heat Index 103 °F
Dew Point 81 °F
Humidity 83%
Rainfall 0.00 in
Snow Depth Not available.
UV 0 out of 12
Pollen 7.00 out of 12
Ozone Good
Flu Activity Not available.
METAR KRAS 271235Z AUTO 02008KT 10SM CLR 27/25 A2993 RMK AO2 T02700245

More Conditions Fewer Conditions

10-Day Weather Forecast

Almanac

Astronomy

Aug. 27, 2014 Rise Set
Actual Time 7:04 AM CDT 7:54 PM CDT
Civil Twilight 6:40 AM CDT 8:18 PM CDT
Nautical Twilight 6:12 AM CDT 8:46 PM CDT
Astronomical Twilight 5:43 AM CDT 9:15 PM CDT
Moon 8:48 AM CDT 9:03 PM CDT
Length of Visible Light 13h 37m
Length of Day
12h 49m
Tomorrow will be 1m 34s shorter.
Waxing Crescent, 3% of the Moon is Illuminated
Today
Waxing Crescent
Sep 2
First Quarter
Sep 8
Full
Sep 15
Last Quarter
Sep 24
New

Today's Extremes

State Highs State Lows

Community

WunderPhotos

Upload Photos

1,747,676 photos uploaded!

Nearby

Air Quality

  Air Quality AQ Index Pollutant
Yesterday Good
OZONE
Current Good
OZONE
Wednesday Good
OZONE
Wednesday Good
PM10
Thursday Good
OZONE
Thursday Good
PM10
Friday Good
OZONE
Friday Good
PM10

Snow Depth

Station Depth Elevation
No new snow has been reported.

Earthquake Activity

City Distance Mag. Time & Date
No recent earthquake activity has been reported nearby.
Minimum magnitude displayed is 2.5.

Coastal Water Temperatures

Place Temperature
Baffin Bay Point of Rocks, TX 82.0 °F
South Bird Island, TX 86.0 °F
Packery Channel, TX 84.9 °F
Port Aransas, TX 82.9 °F
Malaquite Beach (Corpus Christi), TX 84.9 °F

Nearby Weather Stations